Time;durP1;ratioP1;P1;durP2;ratioP2;P2;SDS_P1;SDS_P2;PMS_P1;PMS_P2;Temp;Humidity;BMP_temperature;BMP_pressure;BME280_temperature;BME280_humidity;BME280_pressure;Samples;Min_cycle;Max_cycle;Signal;HPM_P1;HPM_P2
2021/05/02 00:01:23;;;;;;;9.98;2.95;;;;;;;;;;5063215;28;20053;-80
2021/05/02 00:03:49;;;;;;;16.10;4.05;;;;;;;;;;5061446;28;20044;-81
2021/05/02 00:06:16;;;;;;;10.63;2.92;;;;;;;;;;5062648;28;20067;-81
2021/05/02 00:08:43;;;;;;;15.38;2.95;;;;;;;;;;5046850;28;20037;-80
2021/05/02 00:11:10;;;;;;;9.57;2.65;;;;;;;;;;5065649;28;20040;-80
2021/05/02 00:13:56;;;;;;;12.10;2.45;;;;;;;;;;5048633;28;20408;-80
2021/05/02 00:16:22;;;;;;;11.60;2.63;;;;;;;;;;5063477;28;20064;-80
2021/05/02 00:18:48;;;;;;;12.60;2.55;;;;;;;;;;5059090;28;20047;-80
2021/05/02 00:21:15;;;;;;;7.80;2.20;;;;;;;;;;5065794;28;20040;-80
2021/05/02 00:23:42;;;;;;;10.27;2.15;;;;;;;;;;5058853;28;20103;-81
2021/05/02 00:26:09;;;;;;;11.93;2.83;;;;;;;;;;5064123;28;20044;-81
2021/05/02 00:28:35;;;;;;;7.97;2.42;;;;;;;;;;5041502;28;20476;-81
2021/05/02 00:31:04;;;;;;;9.93;2.30;;;;;;;;;;5061980;28;20052;-80
2021/05/02 00:33:31;;;;;;;6.95;2.17;;;;;;;;;;5040961;28;20047;-80
2021/05/02 00:35:57;;;;;;;6.85;2.25;;;;;;;;;;5063168;28;20086;-81
2021/05/02 00:38:24;;;;;;;8.32;2.05;;;;;;;;;;5062842;28;20040;-80
2021/05/02 00:40:55;;;;;;;8.23;1.98;;;;;;;;;;5009819;28;20197;-80
2021/05/02 00:43:36;;;;;;;6.57;1.85;;;;;;;;;;5051641;28;20511;-80
2021/05/02 00:46:10;;;;;;;7.75;2.05;;;;;;;;;;5048727;28;20190;-80
2021/05/02 00:48:43;;;;;;;7.10;1.92;;;;;;;;;;5063461;28;20051;-81
2021/05/02 00:51:11;;;;;;;7.68;1.90;;;;;;;;;;5060387;28;20099;-81
2021/05/02 00:53:45;;;;;;;10.18;2.00;;;;;;;;;;5061855;28;20440;-80
2021/05/02 00:56:17;;;;;;;5.88;1.67;;;;;;;;;;5063600;28;20098;-80
2021/05/02 00:58:48;;;;;;;7.85;2.17;;;;;;;;;;5061884;28;20086;-80
2021/05/02 01:01:19;;;;;;;7.18;1.67;;;;;;;;;;5043321;28;20040;-80
2021/05/02 01:03:47;;;;;;;12.43;1.80;;;;;;;;;;5046071;28;20041;-80
2021/05/02 01:06:14;;;;;;;5.53;1.83;;;;;;;;;;5065104;28;20040;-80
2021/05/02 01:08:41;;;;;;;12.05;2.53;;;;;;;;;;5065140;28;20045;-81
2021/05/02 01:11:11;;;;;;;9.50;2.00;;;;;;;;;;5064433;28;20230;-80
2021/05/02 01:13:43;;;;;;;8.02;1.90;;;;;;;;;;5063672;28;20085;-80
2021/05/02 01:16:13;;;;;;;6.72;1.65;;;;;;;;;;5063102;28;20344;-80
2021/05/02 01:18:39;;;;;;;6.53;2.35;;;;;;;;;;5061692;28;20398;-80
2021/05/02 01:21:06;;;;;;;8.30;2.58;;;;;;;;;;5064469;28;20045;-80
2021/05/02 01:23:35;;;;;;;11.63;1.95;;;;;;;;;;5042959;28;20036;-80
2021/05/02 01:26:01;;;;;;;9.65;2.20;;;;;;;;;;5061959;28;20045;-80
2021/05/02 01:28:28;;;;;;;8.63;1.95;;;;;;;;;;5045833;28;20052;-80
2021/05/02 01:30:55;;;;;;;8.75;2.15;;;;;;;;;;5042325;28;20044;-80
2021/05/02 01:33:22;;;;;;;18.70;2.30;;;;;;;;;;5043585;28;20065;-81
2021/05/02 01:35:49;;;;;;;4.22;1.83;;;;;;;;;;5038960;28;20045;-80
2021/05/02 01:38:16;;;;;;;9.20;2.10;;;;;;;;;;5025288;28;20036;-80
2021/05/02 01:40:43;;;;;;;10.73;2.95;;;;;;;;;;5044539;28;20527;-81
2021/05/02 01:43:09;;;;;;;9.65;2.30;;;;;;;;;;5046766;28;20041;-79
2021/05/02 01:45:35;;;;;;;7.30;1.90;;;;;;;;;;5048566;28;20131;-80
2021/05/02 01:48:04;;;;;;;10.77;1.95;;;;;;;;;;5044771;28;20123;-80
2021/05/02 01:50:33;;;;;;;8.48;2.00;;;;;;;;;;5043631;28;20049;-81
2021/05/02 01:53:00;;;;;;;9.35;1.75;;;;;;;;;;5046014;28;20048;-81
2021/05/02 01:55:26;;;;;;;7.97;1.63;;;;;;;;;;5046134;28;20044;-81
2021/05/02 01:57:54;;;;;;;11.15;2.47;;;;;;;;;;5048030;28;20041;-80
2021/05/02 02:00:21;;;;;;;8.93;3.78;;;;;;;;;;5046507;28;20127;-81
2021/05/02 02:02:48;;;;;;;8.07;1.92;;;;;;;;;;5046190;28;20033;-80
2021/05/02 02:05:16;;;;;;;9.68;2.03;;;;;;;;;;5043896;28;20510;-80
2021/05/02 02:07:43;;;;;;;7.85;2.35;;;;;;;;;;5046502;28;20052;-81
2021/05/02 02:10:10;;;;;;;10.32;3.03;;;;;;;;;;5041971;28;20045;-80
2021/05/02 02:12:36;;;;;;;11.02;2.00;;;;;;;;;;5048606;28;20043;-80
2021/05/02 02:15:03;;;;;;;10.48;2.42;;;;;;;;;;5046952;28;20063;-80
2021/05/02 02:17:29;;;;;;;9.73;2.45;;;;;;;;;;5048000;28;20041;-80
2021/05/02 02:19:56;;;;;;;10.68;2.33;;;;;;;;;;5041110;28;20771;-80
2021/05/02 02:22:23;;;;;;;9.77;2.70;;;;;;;;;;5042064;28;20171;-80
2021/05/02 02:24:59;;;;;;;11.80;2.58;;;;;;;;;;5046524;28;20045;-80
2021/05/02 02:27:28;;;;;;;6.70;2.42;;;;;;;;;;5045079;28;20044;-80
2021/05/02 02:29:57;;;;;;;7.40;2.42;;;;;;;;;;5048199;28;20333;-80
2021/05/02 02:32:23;;;;;;;9.93;2.63;;;;;;;;;;5066562;28;20059;-80
2021/05/02 02:34:50;;;;;;;13.38;2.53;;;;;;;;;;5067279;28;20172;-80
2021/05/02 02:37:18;;;;;;;8.73;2.70;;;;;;;;;;5061054;28;20068;-80
2021/05/02 02:39:47;;;;;;;11.43;2.55;;;;;;;;;;5053668;28;20104;-80
2021/05/02 02:42:13;;;;;;;7.72;2.42;;;;;;;;;;5040582;28;20068;-80
2021/05/02 02:44:45;;;;;;;7.60;2.65;;;;;;;;;;5058085;28;20048;-80
2021/05/02 02:47:12;;;;;;;9.23;2.60;;;;;;;;;;5065688;28;20392;-80
2021/05/02 02:49:41;;;;;;;10.43;2.17;;;;;;;;;;5066012;28;20063;-80
2021/05/02 02:52:08;;;;;;;9.32;2.08;;;;;;;;;;5065452;28;20058;-80
2021/05/02 02:54:36;;;;;;;9.98;2.72;;;;;;;;;;5064228;28;20043;-80
2021/05/02 02:57:03;;;;;;;8.07;2.15;;;;;;;;;;5063717;28;20462;-80
2021/05/02 02:59:31;;;;;;;9.25;2.60;;;;;;;;;;5062715;28;20107;-80
2021/05/02 03:01:59;;;;;;;7.72;2.55;;;;;;;;;;5065750;28;20403;-80
2021/05/02 03:04:29;;;;;;;11.10;2.90;;;;;;;;;;5065734;28;20101;-80
2021/05/02 03:06:57;;;;;;;11.27;2.67;;;;;;;;;;5032302;28;20060;-80
2021/05/02 03:09:26;;;;;;;5.30;2.28;;;;;;;;;;5060416;28;20127;-80
2021/05/02 03:11:52;;;;;;;12.07;2.70;;;;;;;;;;5062724;28;20045;-80
2021/05/02 03:14:18;;;;;;;9.13;2.28;;;;;;;;;;5066419;28;20520;-80
2021/05/02 03:16:45;;;;;;;9.32;2.30;;;;;;;;;;5032581;28;20048;-80
2021/05/02 03:19:14;;;;;;;10.50;2.70;;;;;;;;;;5046786;28;20032;-80
2021/05/02 03:21:44;;;;;;;9.48;2.58;;;;;;;;;;5046150;28;20071;-80
2021/05/02 03:24:12;;;;;;;8.90;2.28;;;;;;;;;;5064390;28;20032;-80
2021/05/02 03:26:39;;;;;;;11.30;2.67;;;;;;;;;;5047751;28;20040;-80
2021/05/02 03:29:05;;;;;;;8.50;2.78;;;;;;;;;;5048264;28;20498;-80
2021/05/02 03:31:32;;;;;;;9.40;2.78;;;;;;;;;;5031337;28;20441;-80
2021/05/02 03:34:04;;;;;;;11.57;2.63;;;;;;;;;;5059367;28;20118;-80
2021/05/02 03:36:34;;;;;;;8.75;2.42;;;;;;;;;;5066114;28;20048;-80
2021/05/02 03:39:01;;;;;;;10.40;2.60;;;;;;;;;;5064985;28;20368;-81
2021/05/02 03:41:28;;;;;;;8.30;2.97;;;;;;;;;;5063112;28;20442;-80
2021/05/02 03:43:54;;;;;;;6.05;2.20;;;;;;;;;;5048627;28;20040;-81
2021/05/02 03:46:26;;;;;;;7.40;2.67;;;;;;;;;;5064537;28;20113;-80
2021/05/02 03:48:57;;;;;;;6.30;2.33;;;;;;;;;;5064348;28;20040;-80
2021/05/02 03:51:24;;;;;;;8.32;2.50;;;;;;;;;;5063477;28;20425;-80
2021/05/02 03:53:51;;;;;;;10.07;2.60;;;;;;;;;;5065574;28;20065;-80
2021/05/02 03:56:31;;;;;;;8.18;2.40;;;;;;;;;;5064407;28;20102;-80
2021/05/02 03:59:05;;;;;;;7.13;2.25;;;;;;;;;;5061275;28;20163;-80
2021/05/02 04:01:31;;;;;;;13.20;2.95;;;;;;;;;;5064474;28;20110;-80
2021/05/02 04:03:59;;;;;;;9.07;2.63;;;;;;;;;;5062930;28;20059;-80
2021/05/02 04:06:26;;;;;;;11.63;3.03;;;;;;;;;;5064440;28;20074;-80
2021/05/02 04:08:52;;;;;;;7.18;2.55;;;;;;;;;;5062676;28;20044;-80
2021/05/02 04:11:19;;;;;;;15.50;3.10;;;;;;;;;;5063277;28;20090;-80
2021/05/02 04:13:45;;;;;;;6.95;2.55;;;;;;;;;;5062376;28;20115;-80
2021/05/02 04:16:15;;;;;;;13.60;2.63;;;;;;;;;;5062398;28;20040;-80
2021/05/02 04:18:42;;;;;;;8.57;2.70;;;;;;;;;;5063974;28;20476;-80
2021/05/02 04:21:08;;;;;;;10.38;2.70;;;;;;;;;;5047753;28;20446;-80
2021/05/02 04:23:35;;;;;;;10.45;3.30;;;;;;;;;;5061610;28;20044;-80
2021/05/02 04:26:01;;;;;;;12.20;2.60;;;;;;;;;;5047367;28;20051;-80
2021/05/02 04:28:27;;;;;;;9.75;2.85;;;;;;;;;;5063291;28;20064;-80
2021/05/02 04:30:54;;;;;;;6.82;2.80;;;;;;;;;;5043748;28;20057;-80
2021/05/02 04:33:20;;;;;;;6.03;3.15;;;;;;;;;;5039938;28;20046;-80
2021/05/02 04:35:46;;;;;;;15.27;3.17;;;;;;;;;;5040317;28;20435;-80
2021/05/02 04:38:13;;;;;;;9.20;2.90;;;;;;;;;;5038433;28;20113;-80
2021/05/02 04:40:39;;;;;;;11.15;3.22;;;;;;;;;;5042692;28;20065;-80
2021/05/02 04:43:05;;;;;;;8.00;2.42;;;;;;;;;;5022588;28;20041;-80
2021/05/02 04:45:31;;;;;;;6.32;2.58;;;;;;;;;;5026923;28;20086;-80
2021/05/02 04:47:58;;;;;;;8.32;2.13;;;;;;;;;;5026083;28;20049;-79
2021/05/02 04:50:24;;;;;;;6.20;1.77;;;;;;;;;;5043298;28;20037;-80
2021/05/02 04:52:50;;;;;;;5.55;1.88;;;;;;;;;;5044396;28;20060;-80
2021/05/02 04:55:17;;;;;;;4.88;2.28;;;;;;;;;;5044277;28;20048;-80
2021/05/02 04:57:44;;;;;;;6.35;2.05;;;;;;;;;;5042061;28;20206;-80
2021/05/02 05:00:10;;;;;;;10.48;2.60;;;;;;;;;;5024763;28;20064;-80
2021/05/02 05:02:37;;;;;;;11.15;2.50;;;;;;;;;;5039383;28;20046;-80
2021/05/02 05:05:03;;;;;;;9.93;2.97;;;;;;;;;;5043299;28;20045;-79
2021/05/02 05:07:29;;;;;;;6.00;2.65;;;;;;;;;;5027935;28;20115;-80
2021/05/02 05:09:55;;;;;;;14.20;3.13;;;;;;;;;;5040215;28;20060;-80
2021/05/02 05:12:22;;;;;;;9.82;3.17;;;;;;;;;;5037781;28;20064;-80
2021/05/02 05:14:48;;;;;;;8.05;2.30;;;;;;;;;;5046543;28;20034;-80
2021/05/02 05:17:14;;;;;;;9.40;3.05;;;;;;;;;;5052637;28;20441;-80
2021/05/02 05:19:40;;;;;;;13.90;3.05;;;;;;;;;;5051795;28;20072;-80
2021/05/02 05:22:07;;;;;;;6.05;2.33;;;;;;;;;;5050324;28;20044;-80
2021/05/02 05:24:33;;;;;;;9.57;2.88;;;;;;;;;;5051084;28;20053;-80
2021/05/02 05:26:59;;;;;;;6.38;2.60;;;;;;;;;;5052333;28;20381;-80
2021/05/02 05:29:25;;;;;;;10.55;2.50;;;;;;;;;;5052317;28;20041;-80
2021/05/02 05:31:52;;;;;;;7.93;2.22;;;;;;;;;;5071503;28;20060;-80
2021/05/02 05:34:18;;;;;;;8.50;2.47;;;;;;;;;;5053969;28;20121;-80
2021/05/02 05:36:44;;;;;;;11.52;3.03;;;;;;;;;;5071984;28;20045;-80
2021/05/02 05:39:10;;;;;;;6.25;2.80;;;;;;;;;;5071404;28;20123;-80
2021/05/02 05:41:37;;;;;;;8.75;2.80;;;;;;;;;;5071360;28;20099;-80
2021/05/02 05:44:03;;;;;;;11.02;3.05;;;;;;;;;;5071662;28;20052;-80
2021/05/02 05:46:29;;;;;;;10.07;3.17;;;;;;;;;;5070756;28;20472;-80
2021/05/02 05:48:56;;;;;;;14.77;3.17;;;;;;;;;;5054084;28;20146;-80
2021/05/02 05:51:22;;;;;;;7.35;3.08;;;;;;;;;;5053706;28;20052;-80
2021/05/02 05:53:48;;;;;;;6.13;2.13;;;;;;;;;;5071100;28;20395;-80
2021/05/02 05:56:15;;;;;;;9.13;2.88;;;;;;;;;;5071914;28;20040;-80
2021/05/02 05:58:41;;;;;;;4.72;2.10;;;;;;;;;;5071446;28;20055;-80
2021/05/02 06:01:07;;;;;;;9.30;3.10;;;;;;;;;;5052744;28;20041;-80
2021/05/02 06:03:33;;;;;;;6.30;1.95;;;;;;;;;;5053753;28;20036;-80
2021/05/02 06:06:00;;;;;;;5.63;2.35;;;;;;;;;;5068695;28;20492;-80
2021/05/02 06:08:26;;;;;;;7.53;2.60;;;;;;;;;;5070251;28;20047;-80
2021/05/02 06:10:52;;;;;;;11.25;2.83;;;;;;;;;;5053590;28;20067;-80
2021/05/02 06:13:18;;;;;;;8.35;2.85;;;;;;;;;;5053039;28;20115;-80
2021/05/02 06:15:45;;;;;;;9.00;2.65;;;;;;;;;;5070509;28;20119;-80
2021/05/02 06:18:11;;;;;;;7.03;2.42;;;;;;;;;;5071469;28;20498;-80
2021/05/02 06:20:38;;;;;;;8.70;2.67;;;;;;;;;;5071432;28;20094;-80
2021/05/02 06:23:04;;;;;;;9.35;2.60;;;;;;;;;;5052534;28;20059;-80
2021/05/02 06:25:30;;;;;;;7.13;2.30;;;;;;;;;;5071349;28;20087;-80
2021/05/02 06:27:59;;;;;;;9.25;2.75;;;;;;;;;;5070660;28;20151;-80
2021/05/02 06:30:25;;;;;;;10.23;2.53;;;;;;;;;;5071096;28;20045;-80
2021/05/02 06:32:52;;;;;;;9.65;2.47;;;;;;;;;;5053041;28;20063;-79
2021/05/02 06:35:18;;;;;;;8.52;2.53;;;;;;;;;;5052509;28;20044;-82
2021/05/02 06:37:44;;;;;;;8.00;1.90;;;;;;;;;;5071456;28;20048;-80
2021/05/02 06:40:11;;;;;;;11.10;2.08;;;;;;;;;;5052540;28;20472;-77
2021/05/02 06:42:37;;;;;;;7.85;2.00;;;;;;;;;;5052340;28;20060;-79
2021/05/02 06:45:04;;;;;;;13.25;2.22;;;;;;;;;;5050074;28;20056;-79
2021/05/02 06:47:30;;;;;;;8.75;2.03;;;;;;;;;;5068923;28;20171;-80
2021/05/02 06:49:56;;;;;;;9.43;2.10;;;;;;;;;;5068572;28;20109;-80
2021/05/02 06:52:23;;;;;;;8.13;1.98;;;;;;;;;;5067853;28;20110;-80
2021/05/02 06:54:49;;;;;;;27.80;2.85;;;;;;;;;;5068920;28;20181;-80
2021/05/02 06:57:16;;;;;;;6.38;2.20;;;;;;;;;;5069620;28;20136;-79
2021/05/02 06:59:42;;;;;;;12.02;2.50;;;;;;;;;;5067039;28;20048;-80
2021/05/02 07:02:08;;;;;;;6.45;2.70;;;;;;;;;;5065357;28;20437;-81
2021/05/02 07:04:35;;;;;;;7.72;2.75;;;;;;;;;;5047255;28;20487;-81
2021/05/02 07:07:02;;;;;;;8.80;2.75;;;;;;;;;;5067646;28;20114;-81
2021/05/02 07:09:28;;;;;;;6.78;2.15;;;;;;;;;;5066581;28;20072;-80
2021/05/02 07:11:55;;;;;;;9.23;2.38;;;;;;;;;;5065972;28;20445;-81
2021/05/02 07:14:21;;;;;;;12.18;2.47;;;;;;;;;;5046946;28;20043;-80
2021/05/02 07:16:47;;;;;;;7.10;1.65;;;;;;;;;;5066260;28;20055;-79
2021/05/02 07:19:14;;;;;;;9.13;2.20;;;;;;;;;;5067124;28;20120;-81
2021/05/02 07:21:41;;;;;;;11.52;2.95;;;;;;;;;;5067424;28;20059;-80
2021/05/02 07:24:08;;;;;;;8.27;1.80;;;;;;;;;;5047310;28;20098;-80
2021/05/02 07:26:34;;;;;;;7.53;2.00;;;;;;;;;;5068689;28;20048;-81
2021/05/02 07:29:00;;;;;;;14.43;2.83;;;;;;;;;;5031767;28;20517;-85
2021/05/02 07:31:26;;;;;;;7.65;1.67;;;;;;;;;;5043723;28;20114;-82
2021/05/02 07:33:53;;;;;;;5.70;1.50;;;;;;;;;;5050454;28;20760;-81
2021/05/02 07:36:19;;;;;;;10.07;2.80;;;;;;;;;;4993596;28;20058;-81
2021/05/02 07:38:46;;;;;;;7.43;1.80;;;;;;;;;;5009710;28;20100;-69
2021/05/02 07:41:12;;;;;;;8.20;2.17;;;;;;;;;;5008526;28;20131;-66
2021/05/02 07:43:40;;;;;;;6.55;1.95;;;;;;;;;;5008149;28;20066;-74
2021/05/02 07:46:06;;;;;;;8.55;1.77;;;;;;;;;;5009729;28;20045;-82
2021/05/02 07:48:34;;;;;;;6.43;1.70;;;;;;;;;;5007157;28;20135;-70
2021/05/02 07:51:01;;;;;;;10.18;1.60;;;;;;;;;;5005750;28;20092;-70
2021/05/02 07:53:27;;;;;;;9.60;2.05;;;;;;;;;;5003747;28;20116;-70
2021/05/02 07:55:53;;;;;;;10.13;1.77;;;;;;;;;;5004611;28;20042;-70
2021/05/02 07:58:20;;;;;;;10.05;1.90;;;;;;;;;;5004869;28;20042;-70
2021/05/02 08:00:47;;;;;;;10.27;1.98;;;;;;;;;;4999661;28;20521;-70
2021/05/02 08:03:13;;;;;;;7.28;1.95;;;;;;;;;;5004869;28;20128;-69
2021/05/02 08:05:40;;;;;;;7.70;1.42;;;;;;;;;;5003753;28;20494;-70
2021/05/02 08:08:06;;;;;;;8.15;2.13;;;;;;;;;;5008299;28;20415;-70
2021/05/02 08:10:32;;;;;;;7.82;2.58;;;;;;;;;;5008835;28;20080;-70
2021/05/02 08:12:59;;;;;;;7.45;1.88;;;;;;;;;;5007258;28;20408;-70
2021/05/02 08:15:25;;;;;;;6.28;2.25;;;;;;;;;;5005969;28;20072;-70
2021/05/02 08:17:51;;;;;;;10.57;2.25;;;;;;;;;;5006566;28;20049;-70
2021/05/02 08:20:17;;;;;;;8.63;1.80;;;;;;;;;;5009880;28;20057;-69
2021/05/02 08:22:44;;;;;;;4.97;1.60;;;;;;;;;;5005902;28;20124;-70
2021/05/02 08:25:11;;;;;;;8.88;1.63;;;;;;;;;;5007672;28;20041;-70
2021/05/02 08:27:37;;;;;;;12.52;1.88;;;;;;;;;;5007468;28;20042;-70
2021/05/02 08:30:05;;;;;;;12.98;2.05;;;;;;;;;;5014852;28;20128;-70
2021/05/02 08:32:31;;;;;;;6.70;1.70;;;;;;;;;;5025598;28;20053;-70
2021/05/02 08:34:57;;;;;;;13.38;1.90;;;;;;;;;;5022841;28;20041;-70
2021/05/02 08:37:24;;;;;;;7.63;1.60;;;;;;;;;;5028126;28;20465;-70
2021/05/02 08:39:51;;;;;;;5.20;1.38;;;;;;;;;;5028985;28;20068;-70
2021/05/02 08:42:17;;;;;;;7.95;1.63;;;;;;;;;;5025363;28;20045;-70
2021/05/02 08:44:44;;;;;;;4.65;1.70;;;;;;;;;;5025689;28;20099;-69
2021/05/02 08:47:13;;;;;;;10.13;1.30;;;;;;;;;;5030109;28;20109;-70
2021/05/02 08:49:40;;;;;;;10.68;1.80;;;;;;;;;;5031667;28;20132;-70
2021/05/02 08:52:07;;;;;;;6.72;1.60;;;;;;;;;;5028210;28;20059;-69
2021/05/02 08:54:33;;;;;;;9.48;1.80;;;;;;;;;;5031041;28;20512;-70
2021/05/02 08:56:59;;;;;;;4.28;1.55;;;;;;;;;;5027093;28;20052;-70
2021/05/02 08:59:26;;;;;;;6.70;1.60;;;;;;;;;;5033213;28;20108;-70
2021/05/02 09:01:56;;;;;;;4.43;1.67;;;;;;;;;;5029774;28;20052;-69
2021/05/02 09:04:22;;;;;;;5.45;1.60;;;;;;;;;;5028389;28;20080;-70
2021/05/02 09:06:48;;;;;;;7.13;2.03;;;;;;;;;;5032161;28;20046;-70
2021/05/02 09:09:15;;;;;;;8.40;1.60;;;;;;;;;;5029547;28;20038;-70
2021/05/02 09:11:43;;;;;;;7.97;1.77;;;;;;;;;;5029034;28;20077;-70
2021/05/02 09:14:24;;;;;;;6.63;1.70;;;;;;;;;;5030157;28;20046;-70
2021/05/02 09:16:51;;;;;;;7.03;1.70;;;;;;;;;;5031298;28;20401;-70
2021/05/02 09:19:18;;;;;;;5.32;1.40;;;;;;;;;;5026348;28;20046;-70
2021/05/02 09:21:45;;;;;;;5.90;1.48;;;;;;;;;;5031279;28;20064;-70
2021/05/02 09:24:32;;;;;;;4.47;1.30;;;;;;;;;;5029523;28;20037;-70
2021/05/02 09:27:03;;;;;;;5.72;1.42;;;;;;;;;;5032281;28;20111;-70
2021/05/02 09:29:31;;;;;;;8.90;2.95;;;;;;;;;;5029676;28;20045;-70
2021/05/02 09:31:57;;;;;;;3.25;1.40;;;;;;;;;;5030231;28;20147;-70
2021/05/02 09:34:24;;;;;;;8.98;1.67;;;;;;;;;;5030023;28;20037;-70
2021/05/02 09:37:02;;;;;;;7.07;1.77;;;;;;;;;;5029060;28;20068;-70
2021/05/02 09:39:36;;;;;;;4.80;1.27;;;;;;;;;;5027738;28;20140;-70
2021/05/02 09:42:04;;;;;;;6.85;1.30;;;;;;;;;;5030866;28;20045;-70
2021/05/02 09:44:43;;;;;;;8.38;2.40;;;;;;;;;;5031173;28;20101;-70
2021/05/02 09:47:29;;;;;;;5.30;1.42;;;;;;;;;;5027352;28;20037;-70
2021/05/02 09:50:04;;;;;;;6.32;1.20;;;;;;;;;;5027858;28;20038;-70
2021/05/02 09:52:43;;;;;;;6.43;2.00;;;;;;;;;;5027712;28;20048;-70
2021/05/02 09:55:29;;;;;;;6.50;1.48;;;;;;;;;;5027881;28;20438;-70
2021/05/02 09:58:03;;;;;;;9.27;2.22;;;;;;;;;;5028549;28;20056;-70
2021/05/02 10:00:31;;;;;;;6.85;1.40;;;;;;;;;;5029213;28;20049;-70
2021/05/02 10:02:58;;;;;;;5.80;1.48;;;;;;;;;;5029123;28;20469;-70
2021/05/02 10:05:24;;;;;;;5.22;1.77;;;;;;;;;;5028421;28;20412;-70
2021/05/02 10:07:51;;;;;;;6.03;1.80;;;;;;;;;;5029019;28;20054;-70
2021/05/02 10:10:17;;;;;;;4.55;1.10;;;;;;;;;;5031698;28;20140;-70
2021/05/02 10:12:49;;;;;;;4.55;1.50;;;;;;;;;;5028238;28;20050;-70
2021/05/02 10:15:15;;;;;;;6.65;1.63;;;;;;;;;;5029093;28;20034;-70
2021/05/02 10:17:42;;;;;;;6.18;1.48;;;;;;;;;;5029906;28;20041;-70
2021/05/02 10:20:10;;;;;;;6.65;1.70;;;;;;;;;;5027014;28;20481;-70
2021/05/02 10:22:36;;;;;;;5.63;1.30;;;;;;;;;;5026243;28;20124;-70
2021/05/02 10:25:03;;;;;;;7.30;1.35;;;;;;;;;;5029737;28;20162;-70
2021/05/02 10:27:29;;;;;;;5.50;1.45;;;;;;;;;;5029549;28;20042;-70
2021/05/02 10:30:03;;;;;;;6.43;1.50;;;;;;;;;;5028005;28;20137;-70
2021/05/02 10:32:29;;;;;;;;;;;;;;;;;;5029220;28;20034;-70
2021/05/02 10:35:05;;;;;;;4.97;1.63;;;;;;;;;;5026474;28;20344;-70
2021/05/02 10:37:34;;;;;;;7.45;1.63;;;;;;;;;;5030741;28;20123;-70
2021/05/02 10:40:04;;;;;;;7.07;1.27;;;;;;;;;;5025827;28;20061;-70
2021/05/02 10:42:41;;;;;;;7.43;1.27;;;;;;;;;;5027367;28;20544;-70
2021/05/02 10:45:41;;;;;;;5.20;1.48;;;;;;;;;;5011177;28;20046;-70
2021/05/02 10:48:09;;;;;;;6.28;1.50;;;;;;;;;;5018355;28;20443;-70
2021/05/02 10:50:40;;;;;;;5.30;1.25;;;;;;;;;;5026217;28;20045;-70
2021/05/02 10:53:09;;;;;;;5.35;1.70;;;;;;;;;;5008059;28;20054;-70
2021/05/02 10:55:47;;;;;;;4.25;1.50;;;;;;;;;;5009118;28;20050;-70
2021/05/02 10:58:20;;;;;;;6.47;1.27;;;;;;;;;;5022589;28;21772;-70
2021/05/02 11:00:47;;;;;;;;;;;;;;;;;;5025134;28;20489;-70
2021/05/02 11:03:33;;;;;;;5.40;1.25;;;;;;;;;;5007587;28;20395;-70
2021/05/02 11:06:00;;;;;;;5.25;1.23;;;;;;;;;;4998679;28;20445;-70
2021/05/02 11:08:44;;;;;;;10.40;2.35;;;;;;;;;;5026385;28;20045;-70
2021/05/02 11:11:39;;;;;;;5.28;1.88;;;;;;;;;;5023950;28;20042;-70
2021/05/02 11:14:32;;;;;;;3.13;1.20;;;;;;;;;;5023380;28;20064;-70
2021/05/02 11:17:18;;;;;;;5.20;1.33;;;;;;;;;;5022897;28;20057;-71
2021/05/02 11:19:45;;;;;;;5.97;1.27;;;;;;;;;;5023345;28;20060;-70
2021/05/02 11:22:12;;;;;;;5.88;1.30;;;;;;;;;;5024169;28;20533;-70
2021/05/02 11:24:52;;;;;;;5.20;1.10;;;;;;;;;;5021829;28;20046;-70
2021/05/02 11:30:12;;;;;;;4.88;1.20;;;;;;;;;;5018897;28;20068;-71
2021/05/02 11:32:40;;;;;;;5.68;1.17;;;;;;;;;;5013180;28;20093;-71
2021/05/02 11:35:07;;;;;;;5.07;1.20;;;;;;;;;;5028854;28;20128;-82
2021/05/02 11:37:49;;;;;;;3.80;0.93;;;;;;;;;;5005732;28;20045;-80
2021/05/02 11:40:38;;;;;;;4.75;1.20;;;;;;;;;;5007868;28;20083;-81
2021/05/02 11:43:15;;;;;;;4.55;1.10;;;;;;;;;;5023066;28;20096;-81
2021/05/02 11:45:55;;;;;;;3.47;0.85;;;;;;;;;;5024513;28;20053;-80
2021/05/02 11:48:22;;;;;;;4.25;0.80;;;;;;;;;;5024445;28;20046;-80
2021/05/02 11:50:51;;;;;;;4.35;1.10;;;;;;;;;;5009182;28;20045;-80
2021/05/02 11:53:35;;;;;;;4.32;0.90;;;;;;;;;;5021558;28;20086;-80
2021/05/02 11:56:01;;;;;;;;;;;;;;;;;;5027503;28;20061;-80
2021/05/02 11:58:28;;;;;;;3.85;0.90;;;;;;;;;;5026567;28;19921;-80
2021/05/02 12:00:55;;;;;;;6.75;1.23;;;;;;;;;;5019220;28;20240;-80
2021/05/02 12:03:37;;;;;;;4.50;1.42;;;;;;;;;;5023433;28;20064;-80
2021/05/02 12:06:04;;;;;;;4.53;1.40;;;;;;;;;;5023352;28;20503;-80
2021/05/02 12:08:31;;;;;;;3.58;1.20;;;;;;;;;;5024599;28;20269;-80
2021/05/02 12:10:59;;;;;;;5.68;1.45;;;;;;;;;;5023306;28;20366;-80
2021/05/02 12:13:34;;;;;;;4.47;1.33;;;;;;;;;;5025993;28;20507;-80
2021/05/02 12:16:01;;;;;;;4.95;1.23;;;;;;;;;;5022106;28;20386;-80
2021/05/02 12:18:46;;;;;;;8.75;1.23;;;;;;;;;;5026040;28;20049;-80
2021/05/02 12:21:13;;;;;;;6.28;1.52;;;;;;;;;;5024703;28;20053;-80
2021/05/02 12:23:40;;;;;;;5.82;1.52;;;;;;;;;;5025780;28;20041;-80
2021/05/02 12:26:06;;;;;;;8.40;1.60;;;;;;;;;;5025074;28;20361;-80
2021/05/02 12:28:33;;;;;;;5.85;1.83;;;;;;;;;;5024159;28;20148;-80
2021/05/02 12:30:59;;;;;;;3.83;1.15;;;;;;;;;;5024684;28;20060;-80
2021/05/02 12:33:26;;;;;;;5.28;1.40;;;;;;;;;;5021866;28;20049;-80
2021/05/02 12:35:52;;;;;;;4.10;1.13;;;;;;;;;;5024717;28;20618;-80
2021/05/02 12:38:26;;;;;;;5.15;1.45;;;;;;;;;;5020471;28;20098;-80
2021/05/02 12:40:52;;;;;;;2.78;1.10;;;;;;;;;;5006994;28;20460;-81
2021/05/02 12:43:23;;;;;;;6.47;1.60;;;;;;;;;;5004335;28;20053;-80
2021/05/02 12:45:49;;;;;;;6.68;1.55;;;;;;;;;;5025117;28;20429;-85
2021/05/02 12:48:23;;;;;;;3.33;1.20;;;;;;;;;;5020103;28;20673;-85
2021/05/02 12:50:50;;;;;;;9.68;1.70;;;;;;;;;;5017274;28;20171;-80
2021/05/02 12:53:16;;;;;;;7.65;1.88;;;;;;;;;;5007800;28;20100;-75
2021/05/02 12:55:52;;;;;;;11.55;1.92;;;;;;;;;;5012572;28;20033;-80
2021/05/02 12:58:32;;;;;;;4.80;1.50;;;;;;;;;;4993247;28;20081;-80
2021/05/02 13:01:03;;;;;;;10.52;1.75;;;;;;;;;;5011592;28;20060;-79
2021/05/02 13:03:37;;;;;;;6.90;1.77;;;;;;;;;;5014505;28;20068;-79
2021/05/02 13:06:05;;;;;;;7.32;2.30;;;;;;;;;;5003661;28;20049;-79
2021/05/02 13:08:31;;;;;;;5.40;1.50;;;;;;;;;;5025179;28;20124;-79
2021/05/02 13:10:58;;;;;;;3.45;1.38;;;;;;;;;;5005578;28;20120;-79
2021/05/02 13:13:24;;;;;;;7.90;1.52;;;;;;;;;;5023865;28;20038;-79
2021/05/02 13:15:51;;;;;;;4.63;1.30;;;;;;;;;;5022904;28;20029;-79
2021/05/02 13:18:20;;;;;;;6.50;1.10;;;;;;;;;;5023161;28;20061;-80
2021/05/02 13:20:46;;;;;;;5.75;1.30;;;;;;;;;;5023657;28;20098;-79
2021/05/02 13:23:23;;;;;;;3.10;0.98;;;;;;;;;;5023734;28;20060;-79
2021/05/02 13:25:49;;;;;;;4.55;1.10;;;;;;;;;;5024354;28;20130;-79
2021/05/02 13:28:16;;;;;;;3.10;0.90;;;;;;;;;;5024600;28;20419;-80
2021/05/02 13:30:42;;;;;;;4.78;1.38;;;;;;;;;;5022030;28;20042;-79
2021/05/02 13:33:10;;;;;;;3.72;1.42;;;;;;;;;;5023374;28;20053;-80
2021/05/02 13:35:44;;;;;;;5.13;1.13;;;;;;;;;;5028101;28;20037;-79
2021/05/02 13:38:12;;;;;;;5.30;1.77;;;;;;;;;;5028425;28;20053;-80
2021/05/02 13:40:39;;;;;;;3.97;0.90;;;;;;;;;;5027036;28;20482;-80
2021/05/02 13:43:05;;;;;;;4.32;1.45;;;;;;;;;;5026705;28;20046;-81
2021/05/02 13:45:31;;;;;;;3.92;1.20;;;;;;;;;;5028478;28;20089;-80
2021/05/02 13:47:58;;;;;;;3.53;1.05;;;;;;;;;;5024640;28;20095;-80
2021/05/02 13:50:25;;;;;;;8.00;1.10;;;;;;;;;;5027164;28;20054;-80
2021/05/02 13:52:52;;;;;;;4.05;1.20;;;;;;;;;;5012773;28;20041;-80
2021/05/02 13:55:19;;;;;;;3.95;0.95;;;;;;;;;;5026763;28;20136;-80
2021/05/02 13:57:47;;;;;;;4.75;1.17;;;;;;;;;;5027073;28;20457;-80
2021/05/02 14:00:14;;;;;;;4.05;0.82;;;;;;;;;;5029886;28;20048;-80
2021/05/02 14:02:42;;;;;;;3.97;1.42;;;;;;;;;;5028094;28;20046;-80
2021/05/02 14:05:09;;;;;;;3.30;1.00;;;;;;;;;;5029174;28;20044;-80
2021/05/02 14:07:36;;;;;;;3.83;1.10;;;;;;;;;;5030006;28;20041;-80
2021/05/02 14:10:03;;;;;;;4.93;1.27;;;;;;;;;;5030700;28;20492;-95
2021/05/02 14:12:29;;;;;;;3.78;1.10;;;;;;;;;;5013348;28;20065;-77
2021/05/02 14:14:56;;;;;;;2.75;0.90;;;;;;;;;;5028609;28;20088;-87
2021/05/02 14:17:24;;;;;;;3.92;1.15;;;;;;;;;;5010904;28;20044;-86
2021/05/02 14:19:51;;;;;;;5.95;1.67;;;;;;;;;;5026245;28;20037;-79
2021/05/02 14:22:17;;;;;;;4.00;1.63;;;;;;;;;;5021411;28;20038;-86
2021/05/02 14:24:45;;;;;;;4.30;1.20;;;;;;;;;;5020604;28;20074;-92
2021/05/02 14:27:12;;;;;;;5.15;1.40;;;;;;;;;;5010644;28;20041;-86
2021/05/02 14:29:38;;;;;;;9.50;1.10;;;;;;;;;;5023709;28;20049;-87
2021/05/02 14:32:05;;;;;;;4.68;1.40;;;;;;;;;;5027594;28;20087;-80
2021/05/02 14:34:31;;;;;;;5.70;1.30;;;;;;;;;;5026084;28;20053;-80
2021/05/02 14:36:58;;;;;;;6.45;1.42;;;;;;;;;;5028446;28;20183;-81
2021/05/02 14:39:28;;;;;;;4.88;1.40;;;;;;;;;;5025715;28;20116;-80
2021/05/02 14:41:55;;;;;;;8.25;1.00;;;;;;;;;;5027262;28;20262;-80
2021/05/02 14:44:21;;;;;;;3.40;1.50;;;;;;;;;;5007373;28;20149;-80
2021/05/02 14:46:47;;;;;;;3.30;1.00;;;;;;;;;;5018022;28;20592;-80
2021/05/02 14:49:14;;;;;;;3.90;1.10;;;;;;;;;;5008126;28;20885;-80
2021/05/02 14:51:40;;;;;;;4.50;1.20;;;;;;;;;;4990190;28;20068;-81